Time;durP1;ratioP1;P1;durP2;ratioP2;P2;SDS_P1;SDS_P2;PMS_P1;PMS_P2;Temp;Humidity;BMP_temperature;BMP_pressure;BME280_temperature;BME280_humidity;BME280_pressure;Samples;Min_cycle;Max_cycle;Signal;HPM_P1;HPM_P2
2021/09/21 00:02:06;;;;;;;16.33;9.00;;;;;;;;;;5015243;28;20050;-66
2021/09/21 00:04:35;;;;;;;16.75;9.38;;;;;;;;;;5015128;28;20049;-67
2021/09/21 00:07:02;;;;;;;17.48;9.50;;;;;;;;;;5015478;28;20052;-66
2021/09/21 00:09:29;;;;;;;17.58;9.27;;;;;;;;;;5015553;28;20499;-66
2021/09/21 00:11:56;;;;;;;18.30;9.32;;;;;;;;;;5015179;28;20132;-66
2021/09/21 00:14:23;;;;;;;16.63;9.40;;;;;;;;;;5015068;28;20406;-66
2021/09/21 00:16:50;;;;;;;19.63;9.93;;;;;;;;;;5015271;28;20429;-67
2021/09/21 00:19:17;;;;;;;17.08;8.68;;;;;;;;;;5015012;28;20449;-66
2021/09/21 00:21:46;;;;;;;17.70;9.15;;;;;;;;;;5015156;28;20049;-67
2021/09/21 00:24:13;;;;;;;17.90;9.32;;;;;;;;;;5015187;28;20056;-66
2021/09/21 00:26:40;;;;;;;15.27;8.95;;;;;;;;;;5015171;28;20054;-66
2021/09/21 00:29:07;;;;;;;15.18;8.73;;;;;;;;;;5015102;28;20054;-66
2021/09/21 00:31:38;;;;;;;15.80;8.20;;;;;;;;;;5014852;28;20057;-65
2021/09/21 00:34:08;;;;;;;14.13;7.70;;;;;;;;;;5014891;28;20064;-66
2021/09/21 00:36:36;;;;;;;15.90;8.50;;;;;;;;;;5014801;28;20050;-66
2021/09/21 00:39:08;;;;;;;16.77;8.93;;;;;;;;;;5014726;28;20128;-66
2021/09/21 00:41:36;;;;;;;14.27;8.20;;;;;;;;;;5015129;28;20061;-66
2021/09/21 00:44:04;;;;;;;20.38;9.00;;;;;;;;;;5014965;28;20056;-66
2021/09/21 00:46:31;;;;;;;15.10;8.07;;;;;;;;;;5014738;28;20422;-67
2021/09/21 00:48:58;;;;;;;14.30;7.93;;;;;;;;;;5014558;28;20587;-67
2021/09/21 00:51:26;;;;;;;14.85;8.20;;;;;;;;;;5014526;28;20045;-67
2021/09/21 00:53:53;;;;;;;16.73;8.93;;;;;;;;;;5014246;28;20049;-68
2021/09/21 00:56:22;;;;;;;15.18;8.70;;;;;;;;;;5014390;28;20096;-67
2021/09/21 00:58:49;;;;;;;15.27;8.98;;;;;;;;;;5014387;28;20050;-67
2021/09/21 01:01:16;;;;;;;14.32;8.02;;;;;;;;;;5014294;28;20054;-67
2021/09/21 01:03:43;;;;;;;17.83;9.73;;;;;;;;;;5014044;28;20046;-67
2021/09/21 01:06:10;;;;;;;14.63;9.18;;;;;;;;;;5014506;28;20050;-67
2021/09/21 01:08:41;;;;;;;15.13;8.82;;;;;;;;;;5014508;28;20045;-67
2021/09/21 01:11:10;;;;;;;14.82;8.32;;;;;;;;;;5014273;28;20060;-67
2021/09/21 01:13:39;;;;;;;15.57;8.82;;;;;;;;;;5014462;28;20045;-67
2021/09/21 01:16:06;;;;;;;15.48;8.70;;;;;;;;;;5014875;28;20450;-67
2021/09/21 01:18:34;;;;;;;14.95;8.27;;;;;;;;;;5014449;28;20046;-67
2021/09/21 01:21:03;;;;;;;17.75;9.88;;;;;;;;;;5014208;28;20529;-67
2021/09/21 01:23:32;;;;;;;16.63;9.05;;;;;;;;;;5013581;28;20060;-67
2021/09/21 01:25:59;;;;;;;18.92;10.60;;;;;;;;;;5013910;28;20054;-67
2021/09/21 01:28:26;;;;;;;19.42;10.30;;;;;;;;;;5013838;28;20054;-67
2021/09/21 01:30:53;;;;;;;18.40;9.73;;;;;;;;;;5013782;28;20052;-66
2021/09/21 01:33:21;;;;;;;17.63;9.68;;;;;;;;;;5013575;28;20045;-67
2021/09/21 01:35:48;;;;;;;16.25;9.63;;;;;;;;;;5013959;28;20054;-66
2021/09/21 01:38:15;;;;;;;18.77;10.20;;;;;;;;;;5013583;28;20050;-66
2021/09/21 01:40:43;;;;;;;19.27;10.68;;;;;;;;;;5013529;28;20050;-67
2021/09/21 01:43:10;;;;;;;17.35;9.80;;;;;;;;;;5013214;28;20400;-67
2021/09/21 01:45:37;;;;;;;18.45;10.10;;;;;;;;;;5013832;28;20147;-67
2021/09/21 01:48:05;;;;;;;19.73;11.20;;;;;;;;;;5013656;28;20054;-67
2021/09/21 01:50:36;;;;;;;18.30;10.10;;;;;;;;;;5013623;28;20503;-67
2021/09/21 01:53:11;;;;;;;18.63;9.88;;;;;;;;;;5013552;28;20050;-66
2021/09/21 02:01:09;;;;;;;17.27;9.27;;;;;;;;;;5013340;28;20056;-66
2021/09/21 02:03:36;;;;;;;17.23;9.30;;;;;;;;;;5012645;28;20050;-66
2021/09/21 02:06:05;;;;;;;17.98;9.90;;;;;;;;;;5013398;28;20133;-66
2021/09/21 02:08:32;;;;;;;17.48;9.50;;;;;;;;;;5013413;28;20061;-67
2021/09/21 02:10:59;;;;;;;16.23;9.65;;;;;;;;;;5012985;28;20186;-67
2021/09/21 02:13:27;;;;;;;19.25;10.43;;;;;;;;;;5012663;28;20056;-66
2021/09/21 02:15:54;;;;;;;21.80;12.82;;;;;;;;;;5012949;28;20057;-66
2021/09/21 02:18:23;;;;;;;16.92;9.70;;;;;;;;;;4995427;28;20050;-66
2021/09/21 02:20:50;;;;;;;18.58;10.35;;;;;;;;;;5012833;28;20076;-66
2021/09/21 02:23:17;;;;;;;15.63;9.35;;;;;;;;;;5011574;28;20057;-67
2021/09/21 02:25:44;;;;;;;19.15;10.20;;;;;;;;;;5013003;28;20513;-67
2021/09/21 02:28:11;;;;;;;18.75;9.52;;;;;;;;;;5012940;28;20048;-67
2021/09/21 02:30:40;;;;;;;20.70;11.05;;;;;;;;;;5012763;28;20064;-66
2021/09/21 02:33:07;;;;;;;18.58;10.00;;;;;;;;;;5012849;28;20049;-66
2021/09/21 02:35:34;;;;;;;18.40;10.27;;;;;;;;;;5012681;28;20065;-67
2021/09/21 02:38:01;;;;;;;19.23;10.30;;;;;;;;;;5012640;28;20052;-66
2021/09/21 02:40:29;;;;;;;20.40;10.63;;;;;;;;;;5012915;28;20056;-66
2021/09/21 02:42:57;;;;;;;20.30;11.43;;;;;;;;;;5013022;28;20053;-66
2021/09/21 02:45:24;;;;;;;17.95;10.35;;;;;;;;;;5012230;28;20054;-66
2021/09/21 02:47:52;;;;;;;20.67;10.38;;;;;;;;;;5012744;28;20492;-66
2021/09/21 02:50:19;;;;;;;18.80;9.98;;;;;;;;;;5012378;28;20144;-67
2021/09/21 02:52:46;;;;;;;17.80;9.73;;;;;;;;;;5012534;28;20057;-66
2021/09/21 02:55:13;;;;;;;20.45;10.57;;;;;;;;;;5012054;28;20486;-66
2021/09/21 02:57:40;;;;;;;19.50;10.13;;;;;;;;;;5012332;28;20053;-66
2021/09/21 03:00:10;;;;;;;19.17;11.50;;;;;;;;;;5012167;28;20414;-66
2021/09/21 03:02:37;;;;;;;19.15;10.95;;;;;;;;;;5012081;28;20133;-66
2021/09/21 03:05:09;;;;;;;18.00;9.85;;;;;;;;;;5012338;28;20045;-66
2021/09/21 03:07:38;;;;;;;20.73;11.57;;;;;;;;;;5012732;28;20057;-66
2021/09/21 03:10:21;;;;;;;19.63;10.65;;;;;;;;;;5012520;28;20073;-66
2021/09/21 03:18:31;;;;;;;16.98;10.02;;;;;;;;;;5012081;28;20169;-66
2021/09/21 03:21:00;;;;;;;18.05;9.35;;;;;;;;;;5011867;28;20050;-66
2021/09/21 03:23:27;;;;;;;20.00;10.32;;;;;;;;;;5011954;28;20061;-66
2021/09/21 03:25:54;;;;;;;17.23;9.50;;;;;;;;;;5011947;28;20056;-66
2021/09/21 03:28:21;;;;;;;19.35;10.63;;;;;;;;;;5012120;28;20053;-66
2021/09/21 03:30:48;;;;;;;17.92;10.20;;;;;;;;;;5011835;28;20491;-66
2021/09/21 03:33:16;;;;;;;18.02;10.68;;;;;;;;;;5011423;28;20058;-66
2021/09/21 03:35:43;;;;;;;19.63;11.20;;;;;;;;;;5015415;28;20042;-67
2021/09/21 03:38:12;;;;;;;17.55;9.77;;;;;;;;;;5015884;28;20061;-67
2021/09/21 03:40:39;;;;;;;18.05;10.95;;;;;;;;;;5015801;28;20472;-67
2021/09/21 03:43:06;;;;;;;19.10;10.65;;;;;;;;;;5016297;28;20132;-67
2021/09/21 03:45:33;;;;;;;17.98;9.85;;;;;;;;;;5015459;28;20139;-67
2021/09/21 03:48:00;;;;;;;19.63;10.45;;;;;;;;;;5015836;28;20053;-66
2021/09/21 03:50:28;;;;;;;17.35;10.55;;;;;;;;;;5015791;28;20045;-66
2021/09/21 03:52:55;;;;;;;19.27;11.25;;;;;;;;;;5015673;28;20050;-66
2021/09/21 03:55:24;;;;;;;17.15;10.30;;;;;;;;;;5015299;28;20050;-66
2021/09/21 03:57:50;;;;;;;19.05;11.77;;;;;;;;;;5015606;28;20157;-66
2021/09/21 04:00:18;;;;;;;17.23;10.50;;;;;;;;;;5015559;28;20513;-66
2021/09/21 04:02:45;;;;;;;21.05;10.50;;;;;;;;;;5015225;28;20046;-66
2021/09/21 04:05:12;;;;;;;22.65;11.35;;;;;;;;;;5015199;28;20141;-66
2021/09/21 04:07:40;;;;;;;19.40;10.75;;;;;;;;;;5015611;28;20050;-67
2021/09/21 04:10:08;;;;;;;20.42;10.77;;;;;;;;;;5015338;28;20053;-67
2021/09/21 04:12:37;;;;;;;19.33;11.20;;;;;;;;;;5015273;28;20060;-67
2021/09/21 04:15:05;;;;;;;17.48;10.20;;;;;;;;;;5015041;28;20056;-66
2021/09/21 04:17:32;;;;;;;19.20;10.45;;;;;;;;;;5015444;28;20384;-66
2021/09/21 04:19:59;;;;;;;21.38;11.27;;;;;;;;;;5015027;28;20422;-66
2021/09/21 04:22:27;;;;;;;20.27;11.07;;;;;;;;;;5015045;28;20406;-66
2021/09/21 04:24:54;;;;;;;19.10;11.35;;;;;;;;;;5015014;28;20062;-66
2021/09/21 04:27:21;;;;;;;20.38;11.52;;;;;;;;;;5015176;28;20046;-66
2021/09/21 04:29:54;;;;;;;21.67;11.32;;;;;;;;;;5015114;28;20400;-66
2021/09/21 04:32:21;;;;;;;18.88;11.30;;;;;;;;;;5014963;28;20514;-66
2021/09/21 04:34:49;;;;;;;18.35;11.15;;;;;;;;;;5014492;28;20075;-66
2021/09/21 04:37:16;;;;;;;21.38;11.80;;;;;;;;;;5014826;28;20049;-66
2021/09/21 04:39:43;;;;;;;21.23;10.85;;;;;;;;;;5014563;28;20046;-66
2021/09/21 04:42:10;;;;;;;20.10;12.15;;;;;;;;;;5015212;28;20403;-67
2021/09/21 04:44:38;;;;;;;18.95;11.60;;;;;;;;;;5014722;28;20057;-66
2021/09/21 04:47:07;;;;;;;18.75;10.52;;;;;;;;;;5013748;28;20060;-66
2021/09/21 04:49:34;;;;;;;18.48;11.50;;;;;;;;;;5014727;28;20052;-67
2021/09/21 04:52:01;;;;;;;19.83;11.15;;;;;;;;;;5014682;28;20072;-67
2021/09/21 04:54:28;;;;;;;19.73;11.13;;;;;;;;;;5014358;28;20414;-67
2021/09/21 04:56:55;;;;;;;21.20;11.48;;;;;;;;;;5014504;28;20098;-66
2021/09/21 04:59:22;;;;;;;18.55;11.00;;;;;;;;;;5014732;28;20046;-66
2021/09/21 05:01:49;;;;;;;20.55;11.70;;;;;;;;;;5014201;28;20101;-66
2021/09/21 05:04:18;;;;;;;20.17;11.30;;;;;;;;;;5014049;28;20060;-66
2021/09/21 05:06:45;;;;;;;20.30;11.10;;;;;;;;;;5014326;28;20137;-66
2021/09/21 05:09:13;;;;;;;18.33;10.88;;;;;;;;;;5014286;28;20060;-67
2021/09/21 05:11:40;;;;;;;21.33;11.85;;;;;;;;;;5014720;28;20050;-67
2021/09/21 05:14:08;;;;;;;20.33;11.05;;;;;;;;;;5014358;28;20050;-67
2021/09/21 05:16:35;;;;;;;22.73;12.65;;;;;;;;;;5014628;28;20133;-67
2021/09/21 05:19:02;;;;;;;18.17;10.32;;;;;;;;;;5014243;28;20136;-67
2021/09/21 05:21:31;;;;;;;20.77;11.25;;;;;;;;;;5013873;28;20053;-67
2021/09/21 05:23:58;;;;;;;19.35;10.98;;;;;;;;;;5013995;28;20511;-67
2021/09/21 05:26:25;;;;;;;18.40;10.60;;;;;;;;;;5013951;28;20050;-67
2021/09/21 05:28:51;;;;;;;21.00;11.60;;;;;;;;;;5013799;28;20058;-67
2021/09/21 05:31:18;;;;;;;18.58;11.32;;;;;;;;;;5013755;28;20050;-67
2021/09/21 05:33:45;;;;;;;20.13;11.90;;;;;;;;;;5013500;28;20064;-67
2021/09/21 05:36:12;;;;;;;17.13;9.70;;;;;;;;;;5013895;28;20052;-67
2021/09/21 05:38:41;;;;;;;21.10;11.45;;;;;;;;;;5013630;28;20056;-67
2021/09/21 05:41:08;;;;;;;17.23;11.05;;;;;;;;;;5013474;28;20136;-67
2021/09/21 05:43:35;;;;;;;18.88;10.95;;;;;;;;;;5013344;28;20056;-67
2021/09/21 05:46:02;;;;;;;20.98;11.32;;;;;;;;;;5013477;28;20091;-67
2021/09/21 05:48:29;;;;;;;19.77;11.32;;;;;;;;;;5013388;28;20046;-67
2021/09/21 05:50:56;;;;;;;19.98;12.05;;;;;;;;;;5013410;28;20049;-67
2021/09/21 05:53:23;;;;;;;25.50;13.43;;;;;;;;;;5013562;28;20054;-67
2021/09/21 05:55:51;;;;;;;23.20;13.55;;;;;;;;;;5013346;28;20498;-67
2021/09/21 05:58:18;;;;;;;20.90;12.43;;;;;;;;;;5013232;28;20050;-67
2021/09/21 06:00:45;;;;;;;22.67;12.38;;;;;;;;;;5013338;28;20050;-67
2021/09/21 06:03:12;;;;;;;25.13;13.32;;;;;;;;;;5012650;28;20410;-67
2021/09/21 06:05:39;;;;;;;23.60;14.35;;;;;;;;;;5013142;28;20525;-67
2021/09/21 06:08:06;;;;;;;24.02;14.40;;;;;;;;;;5012742;28;20537;-67
2021/09/21 06:10:36;;;;;;;23.77;13.88;;;;;;;;;;5012664;28;20396;-67
2021/09/21 06:13:05;;;;;;;26.38;13.57;;;;;;;;;;5012862;28;20049;-67
2021/09/21 06:15:32;;;;;;;22.85;13.30;;;;;;;;;;5012509;28;20521;-68
2021/09/21 06:17:59;;;;;;;24.73;13.57;;;;;;;;;;5012652;28;20396;-66
2021/09/21 06:20:26;;;;;;;21.83;13.05;;;;;;;;;;5012755;28;20503;-66
2021/09/21 06:22:53;;;;;;;22.92;12.95;;;;;;;;;;5012702;28;20057;-66
2021/09/21 06:25:20;;;;;;;21.42;12.73;;;;;;;;;;5012701;28;20054;-66
2021/09/21 06:27:47;;;;;;;28.00;15.57;;;;;;;;;;5012771;28;20487;-66
2021/09/21 06:30:17;;;;;;;27.25;16.55;;;;;;;;;;5012547;28;20045;-66
2021/09/21 06:32:44;;;;;;;25.37;15.00;;;;;;;;;;5012548;28;20056;-66
2021/09/21 06:35:12;;;;;;;24.85;15.05;;;;;;;;;;5012547;28;20456;-66
2021/09/21 06:37:39;;;;;;;25.05;14.75;;;;;;;;;;5012546;28;20050;-66
2021/09/21 06:40:07;;;;;;;25.38;13.82;;;;;;;;;;5012520;28;20049;-66
2021/09/21 06:42:35;;;;;;;28.35;15.60;;;;;;;;;;5012420;28;20072;-67
2021/09/21 06:45:04;;;;;;;25.20;14.40;;;;;;;;;;5012295;28;20084;-67
2021/09/21 06:47:33;;;;;;;29.02;15.35;;;;;;;;;;5012533;28;20046;-67
2021/09/21 06:50:00;;;;;;;23.50;14.25;;;;;;;;;;5012423;28;20077;-67
2021/09/21 06:52:27;;;;;;;27.35;14.45;;;;;;;;;;5012472;28;20050;-67
2021/09/21 06:54:54;;;;;;;32.72;16.80;;;;;;;;;;5012150;28;20046;-67
2021/09/21 06:57:21;;;;;;;29.60;17.95;;;;;;;;;;5012248;28;20057;-68
2021/09/21 06:59:47;;;;;;;25.45;14.75;;;;;;;;;;5012315;28;20046;-67
2021/09/21 07:02:15;;;;;;;28.45;15.88;;;;;;;;;;5012144;28;20056;-67
2021/09/21 07:04:43;;;;;;;24.05;14.27;;;;;;;;;;5037753;22;20053;-66
2021/09/21 07:07:10;;;;;;;26.67;15.10;;;;;;;;;;5031886;28;20480;-66
2021/09/21 07:09:37;;;;;;;22.10;14.10;;;;;;;;;;5031246;28;20136;-68
2021/09/21 07:12:04;;;;;;;26.10;15.52;;;;;;;;;;5031823;28;20092;-67
2021/09/21 07:14:31;;;;;;;34.67;20.08;;;;;;;;;;5031543;28;20045;-67
2021/09/21 07:16:58;;;;;;;29.40;17.27;;;;;;;;;;5031587;28;20148;-67
2021/09/21 07:19:25;;;;;;;27.77;16.10;;;;;;;;;;5031638;28;20128;-67
2021/09/21 07:21:54;;;;;;;26.90;14.25;;;;;;;;;;5031683;28;20132;-68
2021/09/21 07:24:21;;;;;;;29.10;16.83;;;;;;;;;;5031239;28;20128;-68
2021/09/21 07:26:50;;;;;;;31.90;20.90;;;;;;;;;;5031798;28;20490;-68
2021/09/21 07:29:17;;;;;;;29.20;16.67;;;;;;;;;;5031691;28;20453;-67
2021/09/21 07:31:44;;;;;;;26.55;15.52;;;;;;;;;;5031709;28;20046;-67
2021/09/21 07:34:11;;;;;;;27.30;15.38;;;;;;;;;;5031403;28;20201;-67
2021/09/21 07:36:38;;;;;;;27.00;16.15;;;;;;;;;;5031762;28;20494;-67
2021/09/21 07:39:06;;;;;;;33.38;16.88;;;;;;;;;;5031837;28;20045;-67
2021/09/21 07:41:33;;;;;;;29.08;16.25;;;;;;;;;;5031705;28;20550;-67
2021/09/21 07:44:00;;;;;;;28.05;16.45;;;;;;;;;;5031044;28;20095;-67
2021/09/21 07:46:27;;;;;;;24.48;14.07;;;;;;;;;;5031426;28;20132;-66
2021/09/21 07:48:54;;;;;;;25.70;15.63;;;;;;;;;;5031584;28;20052;-66
2021/09/21 07:51:21;;;;;;;27.83;18.35;;;;;;;;;;5031135;28;20050;-67
2021/09/21 07:53:48;;;;;;;33.90;18.27;;;;;;;;;;5031175;28;20183;-67
2021/09/21 07:56:17;;;;;;;25.70;15.80;;;;;;;;;;5031345;28;20045;-67
2021/09/21 07:58:44;;;;;;;30.35;17.40;;;;;;;;;;5031221;28;20089;-67
2021/09/21 08:01:11;;;;;;;28.65;17.15;;;;;;;;;;5031236;28;20514;-66
2021/09/21 08:03:38;;;;;;;28.30;16.75;;;;;;;;;;5030907;28;20081;-67
2021/09/21 08:06:05;;;;;;;27.58;16.17;;;;;;;;;;5031087;28;20049;-67
2021/09/21 08:08:32;;;;;;;26.58;16.35;;;;;;;;;;5031436;28;20383;-66
2021/09/21 08:11:01;;;;;;;26.40;17.00;;;;;;;;;;5031069;28;20045;-67
2021/09/21 08:13:30;;;;;;;29.83;17.63;;;;;;;;;;5030913;28;20065;-66
2021/09/21 08:15:57;;;;;;;25.20;15.57;;;;;;;;;;5031326;28;20057;-67
2021/09/21 08:18:24;;;;;;;27.25;15.63;;;;;;;;;;5030877;28;20045;-67
2021/09/21 08:20:51;;;;;;;29.70;17.33;;;;;;;;;;5031236;28;20136;-66
2021/09/21 08:23:18;;;;;;;25.42;15.18;;;;;;;;;;5034513;28;20053;-67
2021/09/21 08:25:45;;;;;;;21.50;13.15;;;;;;;;;;5034467;28;20137;-67
2021/09/21 08:28:13;;;;;;;23.50;13.90;;;;;;;;;;5034535;28;20487;-67
2021/09/21 08:30:42;;;;;;;19.65;12.40;;;;;;;;;;5034530;28;20547;-67
2021/09/21 08:33:09;;;;;;;20.58;12.65;;;;;;;;;;5033999;28;20490;-67
2021/09/21 08:35:36;;;;;;;21.55;12.80;;;;;;;;;;5034448;28;20052;-67
2021/09/21 08:38:03;;;;;;;22.50;13.23;;;;;;;;;;5034446;28;20071;-67
2021/09/21 08:40:31;;;;;;;23.80;13.90;;;;;;;;;;5034217;28;20050;-67
2021/09/21 08:42:59;;;;;;;22.52;13.90;;;;;;;;;;5034370;28;20564;-67
2021/09/21 08:45:26;;;;;;;23.27;14.68;;;;;;;;;;5034443;28;20132;-67
2021/09/21 08:47:56;;;;;;;23.50;14.48;;;;;;;;;;5034407;28;20042;-67
2021/09/21 08:50:24;;;;;;;23.45;14.38;;;;;;;;;;5034182;28;20140;-67
2021/09/21 08:52:51;;;;;;;24.90;14.02;;;;;;;;;;5034146;28;20129;-67
2021/09/21 08:55:18;;;;;;;26.08;15.90;;;;;;;;;;5033828;28;20053;-67
2021/09/21 08:57:46;;;;;;;25.70;15.38;;;;;;;;;;5034049;28;20520;-67
2021/09/21 09:00:21;;;;;;;24.65;15.68;;;;;;;;;;5033453;28;20056;-67
2021/09/21 09:02:48;;;;;;;25.17;16.15;;;;;;;;;;5033610;28;20473;-67
2021/09/21 09:05:17;;;;;;;27.35;16.85;;;;;;;;;;5033243;28;20533;-67
2021/09/21 09:07:51;;;;;;;24.60;14.88;;;;;;;;;;5033636;28;20502;-67
2021/09/21 09:10:19;;;;;;;17.15;11.77;;;;;;;;;;5033910;28;20181;-67
2021/09/21 09:12:46;;;;;;;16.02;9.77;;;;;;;;;;5033461;28;20417;-67
2021/09/21 09:15:16;;;;;;;18.25;11.57;;;;;;;;;;5033657;28;20128;-67
2021/09/21 09:17:53;;;;;;;18.23;11.75;;;;;;;;;;5033720;28;20046;-67
2021/09/21 09:20:33;;;;;;;17.80;10.70;;;;;;;;;;5033773;28;20049;-67
2021/09/21 09:23:01;;;;;;;16.83;11.32;;;;;;;;;;5033533;28;20077;-67
2021/09/21 09:25:28;;;;;;;18.77;11.40;;;;;;;;;;5033240;28;20406;-67
2021/09/21 09:27:55;;;;;;;17.90;11.50;;;;;;;;;;5033610;28;20056;-67
2021/09/21 09:30:25;;;;;;;18.55;11.60;;;;;;;;;;5033430;28;20132;-67
2021/09/21 09:32:53;;;;;;;18.60;11.60;;;;;;;;;;5032958;28;20076;-67
2021/09/21 09:35:26;;;;;;;17.95;11.07;;;;;;;;;;5033006;28;20060;-67
2021/09/21 09:37:55;;;;;;;19.10;11.35;;;;;;;;;;5033378;28;20140;-67
2021/09/21 09:40:22;;;;;;;18.67;10.93;;;;;;;;;;5033166;28;20046;-67
2021/09/21 09:42:49;;;;;;;19.27;10.75;;;;;;;;;;5033144;28;20125;-67
2021/09/21 09:45:28;;;;;;;18.05;11.15;;;;;;;;;;5032849;28;20071;-67
2021/09/21 09:47:55;;;;;;;16.98;10.70;;;;;;;;;;5033221;28;20132;-67
2021/09/21 09:50:27;;;;;;;15.50;10.50;;;;;;;;;;5032714;28;20521;-67
2021/09/21 09:53:07;;;;;;;15.48;10.43;;;;;;;;;;5033116;28;20060;-67
2021/09/21 09:55:34;;;;;;;17.15;9.82;;;;;;;;;;5032870;28;20299;-66
2021/09/21 09:58:02;;;;;;;18.27;10.98;;;;;;;;;;5032822;28;20055;-67
2021/09/21 10:00:30;;;;;;;18.73;11.90;;;;;;;;;;5032330;28;20135;-67
2021/09/21 10:02:57;;;;;;;17.73;9.80;;;;;;;;;;5032751;28;20561;-67
2021/09/21 10:05:24;;;;;;;13.15;8.70;;;;;;;;;;5032159;28;20049;-68
2021/09/21 10:07:51;;;;;;;19.67;10.48;;;;;;;;;;5033275;28;20046;-67
2021/09/21 10:10:20;;;;;;;17.85;10.27;;;;;;;;;;5032554;28;20051;-67
2021/09/21 10:12:48;;;;;;;15.32;9.45;;;;;;;;;;5032561;28;20429;-67
2021/09/21 10:15:16;;;;;;;16.42;11.00;;;;;;;;;;5032134;28;20055;-67
2021/09/21 10:17:53;;;;;;;18.42;11.30;;;;;;;;;;5032260;28;20042;-67
2021/09/21 10:20:21;;;;;;;14.93;10.52;;;;;;;;;;5032335;28;20089;-67
2021/09/21 10:22:53;;;;;;;16.63;10.50;;;;;;;;;;5032550;28;20481;-67
2021/09/21 10:25:28;;;;;;;14.02;9.35;;;;;;;;;;5031882;28;20068;-68
2021/09/21 10:27:56;;;;;;;16.30;9.77;;;;;;;;;;5032491;28;20510;-67
2021/09/21 10:30:24;;;;;;;20.02;12.43;;;;;;;;;;5032249;28;20053;-67
2021/09/21 10:32:52;;;;;;;27.42;17.00;;;;;;;;;;5031999;28;20045;-68
2021/09/21 10:35:22;;;;;;;19.92;11.60;;;;;;;;;;5031866;28;20045;-68
2021/09/21 10:38:01;;;;;;;21.70;13.25;;;;;;;;;;5032275;28;20089;-68
2021/09/21 10:40:40;;;;;;;21.48;12.80;;;;;;;;;;5031988;28;20085;-68
2021/09/21 10:43:25;;;;;;;19.52;12.60;;;;;;;;;;5031718;28;20056;-68
2021/09/21 10:45:54;;;;;;;18.02;12.02;;;;;;;;;;5031751;28;20046;-68
2021/09/21 10:48:22;;;;;;;19.15;10.88;;;;;;;;;;5031971;28;20076;-68
2021/09/21 10:50:59;;;;;;;18.50;12.48;;;;;;;;;;5031809;28;20124;-68
2021/09/21 10:53:28;;;;;;;18.42;10.93;;;;;;;;;;5031643;28;20489;-68
2021/09/21 10:56:05;;;;;;;17.02;11.10;;;;;;;;;;5031675;28;20084;-68
2021/09/21 10:58:32;;;;;;;17.17;10.40;;;;;;;;;;5031786;28;20132;-68
2021/09/21 11:01:00;;;;;;;17.23;10.73;;;;;;;;;;5031536;28;20490;-67
2021/09/21 11:03:29;;;;;;;18.17;11.38;;;;;;;;;;5031265;28;20124;-68
2021/09/21 11:05:57;;;;;;;20.55;11.00;;;;;;;;;;5031559;28;20124;-67
2021/09/21 11:08:31;;;;;;;19.83;13.02;;;;;;;;;;5031835;28;20056;-68
2021/09/21 11:11:04;;;;;;;21.77;12.38;;;;;;;;;;5031448;28;20486;-67
2021/09/21 11:13:35;;;;;;;14.82;9.77;;;;;;;;;;5031323;28;20049;-68
2021/09/21 11:16:04;;;;;;;17.30;11.13;;;;;;;;;;5032050;28;20081;-68
2021/09/21 11:18:32;;;;;;;18.63;12.48;;;;;;;;;;5031487;28;20132;-68
2021/09/21 11:21:00;;;;;;;20.83;12.35;;;;;;;;;;5031235;28;20145;-68
2021/09/21 11:23:29;;;;;;;18.52;11.48;;;;;;;;;;5031306;28;20128;-68
2021/09/21 11:25:58;;;;;;;21.50;12.68;;;;;;;;;;5031200;28;20049;-68
2021/09/21 11:28:26;;;;;;;22.30;12.38;;;;;;;;;;5031682;28;20050;-66
2021/09/21 11:30:55;;;;;;;21.13;12.82;;;;;;;;;;5031237;28;20144;-67
2021/09/21 11:33:24;;;;;;;20.30;13.10;;;;;;;;;;5031429;28;20532;-67
2021/09/21 11:35:53;;;;;;;19.95;10.38;;;;;;;;;;5031648;28;20693;-68
2021/09/21 11:38:21;;;;;;;17.95;11.20;;;;;;;;;;5031699;28;20136;-68
2021/09/21 11:40:51;;;;;;;17.58;10.93;;;;;;;;;;5031590;28;20128;-68
2021/09/21 11:43:18;;;;;;;21.13;11.90;;;;;;;;;;5031314;28;20057;-68
2021/09/21 11:45:47;;;;;;;14.90;9.93;;;;;;;;;;5031439;28;20207;-68
2021/09/21 11:48:16;;;;;;;17.33;10.82;;;;;;;;;;5031390;28;20056;-68
2021/09/21 11:50:44;;;;;;;18.10;11.90;;;;;;;;;;5031343;28;20046;-67
2021/09/21 11:53:13;;;;;;;19.60;10.52;;;;;;;;;;5030990;28;20053;-66
2021/09/21 11:55:43;;;;;;;19.65;10.73;;;;;;;;;;5033034;28;20046;-67
2021/09/21 11:58:11;;;;;;;20.37;13.33;;;;;;;;;;5035239;28;20067;-67
2021/09/21 12:00:42;;;;;;;20.70;12.07;;;;;;;;;;5035117;28;20042;-67
2021/09/21 12:03:10;;;;;;;16.52;10.90;;;;;;;;;;5035137;28;20045;-67
2021/09/21 12:05:40;;;;;;;20.15;10.85;;;;;;;;;;5035139;28;20128;-67
2021/09/21 12:08:11;;;;;;;24.63;12.63;;;;;;;;;;5035365;28;20099;-67
2021/09/21 12:10:39;;;;;;;19.20;11.80;;;;;;;;;;5035231;28;20545;-67
2021/09/21 12:13:10;;;;;;;18.10;11.20;;;;;;;;;;5035200;28;20053;-69
2021/09/21 12:15:38;;;;;;;17.55;10.63;;;;;;;;;;5034636;28;20518;-67
2021/09/21 12:18:08;;;;;;;17.35;10.60;;;;;;;;;;5034708;28;20053;-67
2021/09/21 12:20:35;;;;;;;16.05;10.30;;;;;;;;;;5034808;28;20132;-67
2021/09/21 12:23:06;;;;;;;17.48;11.38;;;;;;;;;;5034699;28;20049;-68
2021/09/21 12:25:35;;;;;;;20.75;10.80;;;;;;;;;;5034862;28;20608;-67
2021/09/21 12:28:05;;;;;;;16.88;12.00;;;;;;;;;;5034891;28;20144;-67
2021/09/21 12:30:36;;;;;;;19.25;11.23;;;;;;;;;;5034494;28;20140;-67
2021/09/21 12:33:05;;;;;;;17.25;10.43;;;;;;;;;;5034819;28;20049;-67
2021/09/21 12:35:37;;;;;;;22.40;11.57;;;;;;;;;;5033976;28;20056;-67
2021/09/21 12:38:08;;;;;;;20.90;11.98;;;;;;;;;;5034417;28;20529;-68
2021/09/21 12:40:36;;;;;;;17.98;10.38;;;;;;;;;;5034537;28;20107;-67
2021/09/21 12:43:05;;;;;;;20.52;11.43;;;;;;;;;;5034075;28;20502;-67
2021/09/21 12:45:33;;;;;;;18.98;11.43;;;;;;;;;;5034302;28;20466;-67
2021/09/21 12:48:03;;;;;;;17.20;10.40;;;;;;;;;;5034305;28;20077;-67
2021/09/21 12:50:30;;;;;;;16.05;10.05;;;;;;;;;;5034117;28;20056;-68
2021/09/21 12:53:00;;;;;;;17.67;10.32;;;;;;;;;;5034661;28;20057;-67
2021/09/21 12:55:34;;;;;;;26.63;12.67;;;;;;;;;;5034045;28;20155;-68
2021/09/21 12:58:03;;;;;;;21.98;12.30;;;;;;;;;;5034237;28;20513;-67
2021/09/21 13:00:35;;;;;;;22.45;12.65;;;;;;;;;;5033885;28;20124;-68
2021/09/21 13:03:02;;;;;;;25.10;12.63;;;;;;;;;;5033886;28;20045;-67
2021/09/21 13:05:29;;;;;;;22.77;12.52;;;;;;;;;;5032168;22;20054;-68
2021/09/21 13:07:56;;;;;;;21.92;11.57;;;;;;;;;;5014079;28;20128;-68
2021/09/21 13:10:23;;;;;;;28.88;15.85;;;;;;;;;;5014747;28;20415;-68
2021/09/21 13:13:01;;;;;;;20.70;12.15;;;;;;;;;;5014822;28;20081;-68
2021/09/21 13:15:29;;;;;;;21.23;11.52;;;;;;;;;;5014696;28;20139;-69
2021/09/21 13:17:57;;;;;;;20.88;12.55;;;;;;;;;;5015072;28;20050;-70
2021/09/21 13:20:25;;;;;;;22.27;12.93;;;;;;;;;;5015889;28;20089;-69
2021/09/21 13:22:53;;;;;;;20.70;12.50;;;;;;;;;;5014514;28;20046;-69
2021/09/21 13:25:21;;;;;;;20.08;12.40;;;;;;;;;;5014730;28;20169;-70
2021/09/21 13:27:48;;;;;;;18.90;11.57;;;;;;;;;;5014912;28;20473;-68
2021/09/21 13:30:18;;;;;;;17.25;10.93;;;;;;;;;;5014292;28;20466;-69
2021/09/21 13:32:45;;;;;;;17.30;11.57;;;;;;;;;;5014330;28;20085;-69
2021/09/21 13:35:13;;;;;;;19.58;11.52;;;;;;;;;;5013542;28;20049;-68
2021/09/21 13:37:41;;;;;;;18.40;11.85;;;;;;;;;;5014121;28;20050;-69
2021/09/21 13:40:10;;;;;;;18.92;11.45;;;;;;;;;;5014012;28;20060;-69
2021/09/21 13:42:38;;;;;;;21.08;13.38;;;;;;;;;;5015068;28;20455;-69
2021/09/21 13:45:06;;;;;;;22.08;13.30;;;;;;;;;;5014842;28;20410;-68
2021/09/21 13:47:34;;;;;;;29.42;12.70;;;;;;;;;;5013856;28;20479;-69
2021/09/21 13:50:01;;;;;;;24.83;12.93;;;;;;;;;;5013591;28;20125;-69
2021/09/21 13:52:28;;;;;;;22.67;13.63;;;;;;;;;;5013372;28;20081;-69
2021/09/21 13:54:58;;;;;;;20.52;12.20;;;;;;;;;;5013523;28;20137;-68
2021/09/21 13:57:25;;;;;;;25.38;15.25;;;;;;;;;;5013772;28;20061;-68
2021/09/21 13:59:52;;;;;;;21.90;13.52;;;;;;;;;;5013307;28;20058;-67
2021/09/21 14:02:19;;;;;;;21.40;13.60;;;;;;;;;;5013269;28;20049;-67
2021/09/21 14:04:47;;;;;;;19.73;12.82;;;;;;;;;;5012770;28;20046;-67
2021/09/21 14:07:14;;;;;;;20.70;12.52;;;;;;;;;;5013297;28;20049;-67
2021/09/21 14:09:42;;;;;;;23.52;14.93;;;;;;;;;;5013134;28;20054;-67
2021/09/21 14:12:10;;;;;;;24.40;13.18;;;;;;;;;;5013135;28;20408;-67
2021/09/21 14:14:37;;;;;;;24.27;14.65;;;;;;;;;;5012739;28;20471;-67
2021/09/21 14:17:05;;;;;;;23.75;15.02;;;;;;;;;;5012754;28;20053;-66
2021/09/21 14:19:32;;;;;;;22.02;14.25;;;;;;;;;;5011918;28;20049;-67
2021/09/21 14:22:01;;;;;;;22.08;14.43;;;;;;;;;;5012890;28;20075;-67
2021/09/21 14:24:30;;;;;;;20.85;13.10;;;;;;;;;;5012759;28;20057;-66
2021/09/21 14:26:59;;;;;;;26.85;15.93;;;;;;;;;;5012908;28;20053;-67
2021/09/21 14:29:26;;;;;;;27.23;15.40;;;;;;;;;;5012498;28;20530;-67
2021/09/21 14:31:54;;;;;;;22.88;13.68;;;;;;;;;;5012773;28;20060;-66
2021/09/21 14:34:22;;;;;;;23.05;14.60;;;;;;;;;;5012619;28;20132;-67
2021/09/21 14:36:49;;;;;;;22.88;14.40;;;;;;;;;;5012814;28;20559;-67